Terminal Aerodrome Forecast
Issued by NWS Bismarck, ND

Home | Current Version | Previous Version | Text Only | Print | Product List | Glossary On
Versions: 1 2 3 4 5 6 7 8 9 10 11 12 13 14 15 16
000
FTUS43 KBIS 301125
TAFISN
TAF
KISN 301125Z 3012/0112 31010KT P6SM VCSH SCT060
      TEMPO 3013/3015 31018G30KT -SHRA BKN060
     FM301500 32015G25KT P6SM VCSH BKN050
     FM301900 29013G22KT P6SM SCT070
     FM010100 VRB03KT P6SM SKC=

USA.gov is the U.S. government's official web portal to all federal, state and local government web resources and services.